sensor_id;sensor_type;location;lat;lon;timestamp;P1;durP1;ratioP1;P2;durP2;ratioP2
4049;SDS011;2039;50.894;6.888;2023-05-10T00:01:46;78.77;;;22.17;;
4049;SDS011;2039;50.894;6.888;2023-05-10T00:04:11;79.50;;;25.50;;
4049;SDS011;2039;50.894;6.888;2023-05-10T00:06:40;78.73;;;24.77;;
4049;SDS011;2039;50.894;6.888;2023-05-10T00:09:06;77.43;;;25.10;;
4049;SDS011;2039;50.894;6.888;2023-05-10T00:11:31;77.30;;;23.40;;
4049;SDS011;2039;50.894;6.888;2023-05-10T00:13:57;78.13;;;24.43;;
4049;SDS011;2039;50.894;6.888;2023-05-10T00:16:22;80.80;;;27.00;;
4049;SDS011;2039;50.894;6.888;2023-05-10T00:18:48;78.37;;;26.37;;
4049;SDS011;2039;50.894;6.888;2023-05-10T00:21:14;79.07;;;26.50;;
4049;SDS011;2039;50.894;6.888;2023-05-10T00:23:40;77.17;;;23.67;;
4049;SDS011;2039;50.894;6.888;2023-05-10T00:26:05;78.50;;;25.13;;
4049;SDS011;2039;50.894;6.888;2023-05-10T00:28:31;78.17;;;25.50;;
4049;SDS011;2039;50.894;6.888;2023-05-10T00:30:57;80.83;;;26.57;;
4049;SDS011;2039;50.894;6.888;2023-05-10T00:33:22;77.50;;;24.20;;
4049;SDS011;2039;50.894;6.888;2023-05-10T00:35:48;79.77;;;25.60;;
4049;SDS011;2039;50.894;6.888;2023-05-10T00:38:14;79.47;;;25.10;;
4049;SDS011;2039;50.894;6.888;2023-05-10T00:40:39;78.40;;;23.20;;
4049;SDS011;2039;50.894;6.888;2023-05-10T00:43:05;78.57;;;23.10;;
4049;SDS011;2039;50.894;6.888;2023-05-10T00:45:32;79.30;;;23.67;;
4049;SDS011;2039;50.894;6.888;2023-05-10T00:47:59;79.37;;;23.37;;
4049;SDS011;2039;50.894;6.888;2023-05-10T00:50:27;80.17;;;26.77;;
4049;SDS011;2039;50.894;6.888;2023-05-10T00:52:53;82.20;;;27.10;;
4049;SDS011;2039;50.894;6.888;2023-05-10T00:55:19;80.50;;;28.37;;
4049;SDS011;2039;50.894;6.888;2023-05-10T00:57:45;84.30;;;27.27;;
4049;SDS011;2039;50.894;6.888;2023-05-10T01:00:12;79.93;;;24.30;;
4049;SDS011;2039;50.894;6.888;2023-05-10T01:02:42;80.17;;;24.87;;
4049;SDS011;2039;50.894;6.888;2023-05-10T01:05:11;82.60;;;26.97;;
4049;SDS011;2039;50.894;6.888;2023-05-10T01:07:38;82.30;;;25.90;;
4049;SDS011;2039;50.894;6.888;2023-05-10T01:10:05;83.70;;;24.90;;
4049;SDS011;2039;50.894;6.888;2023-05-10T01:12:31;79.17;;;23.43;;
4049;SDS011;2039;50.894;6.888;2023-05-10T01:15:00;83.37;;;26.40;;
4049;SDS011;2039;50.894;6.888;2023-05-10T01:17:26;81.83;;;27.00;;
4049;SDS011;2039;50.894;6.888;2023-05-10T01:19:52;81.00;;;25.93;;
4049;SDS011;2039;50.894;6.888;2023-05-10T01:34:16;80.00;;;23.30;;
4049;SDS011;2039;50.894;6.888;2023-05-10T01:36:48;78.47;;;22.23;;
4049;SDS011;2039;50.894;6.888;2023-05-10T01:44:31;78.67;;;21.50;;
4049;SDS011;2039;50.894;6.888;2023-05-10T01:50:01;78.43;;;22.43;;
4049;SDS011;2039;50.894;6.888;2023-05-10T01:52:32;78.00;;;22.90;;
4049;SDS011;2039;50.894;6.888;2023-05-10T01:55:04;77.80;;;21.73;;
4049;SDS011;2039;50.894;6.888;2023-05-10T01:57:33;77.43;;;21.57;;
4049;SDS011;2039;50.894;6.888;2023-05-10T02:00:02;79.17;;;25.60;;
4049;SDS011;2039;50.894;6.888;2023-05-10T02:02:29;80.23;;;24.40;;
4049;SDS011;2039;50.894;6.888;2023-05-10T02:04:58;79.10;;;24.30;;
4049;SDS011;2039;50.894;6.888;2023-05-10T02:07:24;76.90;;;23.20;;
4049;SDS011;2039;50.894;6.888;2023-05-10T02:09:53;77.07;;;24.00;;
4049;SDS011;2039;50.894;6.888;2023-05-10T02:12:20;78.50;;;22.63;;
4049;SDS011;2039;50.894;6.888;2023-05-10T02:14:48;81.70;;;21.70;;
4049;SDS011;2039;50.894;6.888;2023-05-10T02:17:17;78.07;;;23.70;;
4049;SDS011;2039;50.894;6.888;2023-05-10T02:19:44;79.80;;;25.07;;
4049;SDS011;2039;50.894;6.888;2023-05-10T02:22:12;84.40;;;25.37;;
4049;SDS011;2039;50.894;6.888;2023-05-10T02:24:38;81.90;;;27.47;;
4049;SDS011;2039;50.894;6.888;2023-05-10T02:27:05;84.03;;;27.33;;
4049;SDS011;2039;50.894;6.888;2023-05-10T02:29:31;79.20;;;22.67;;
4049;SDS011;2039;50.894;6.888;2023-05-10T02:31:58;79.53;;;25.27;;
4049;SDS011;2039;50.894;6.888;2023-05-10T02:34:25;80.40;;;25.13;;
4049;SDS011;2039;50.894;6.888;2023-05-10T02:36:53;85.00;;;25.63;;
4049;SDS011;2039;50.894;6.888;2023-05-10T02:39:20;86.30;;;32.17;;
4049;SDS011;2039;50.894;6.888;2023-05-10T02:41:47;81.07;;;28.20;;
4049;SDS011;2039;50.894;6.888;2023-05-10T02:44:14;83.70;;;31.80;;
4049;SDS011;2039;50.894;6.888;2023-05-10T02:46:42;83.77;;;32.87;;
4049;SDS011;2039;50.894;6.888;2023-05-10T02:49:08;82.40;;;30.90;;
4049;SDS011;2039;50.894;6.888;2023-05-10T02:51:35;89.03;;;28.00;;
4049;SDS011;2039;50.894;6.888;2023-05-10T02:54:04;86.80;;;29.27;;
4049;SDS011;2039;50.894;6.888;2023-05-10T02:56:37;84.03;;;27.70;;
4049;SDS011;2039;50.894;6.888;2023-05-10T02:59:07;82.17;;;29.23;;
4049;SDS011;2039;50.894;6.888;2023-05-10T03:01:36;81.10;;;31.00;;
4049;SDS011;2039;50.894;6.888;2023-05-10T03:04:01;83.00;;;27.00;;
4049;SDS011;2039;50.894;6.888;2023-05-10T03:06:27;80.77;;;25.27;;
4049;SDS011;2039;50.894;6.888;2023-05-10T03:08:54;81.30;;;26.87;;
4049;SDS011;2039;50.894;6.888;2023-05-10T03:14:08;79.83;;;24.27;;
4049;SDS011;2039;50.894;6.888;2023-05-10T03:16:52;83.20;;;29.87;;
4049;SDS011;2039;50.894;6.888;2023-05-10T03:19:32;79.97;;;30.20;;
4049;SDS011;2039;50.894;6.888;2023-05-10T03:24:53;80.87;;;30.40;;
4049;SDS011;2039;50.894;6.888;2023-05-10T03:27:31;80.23;;;27.70;;
4049;SDS011;2039;50.894;6.888;2023-05-10T03:30:18;82.13;;;29.60;;
4049;SDS011;2039;50.894;6.888;2023-05-10T03:32:47;79.40;;;29.37;;
4049;SDS011;2039;50.894;6.888;2023-05-10T03:35:37;78.77;;;26.80;;
4049;SDS011;2039;50.894;6.888;2023-05-10T03:38:06;80.70;;;28.30;;
4049;SDS011;2039;50.894;6.888;2023-05-10T03:40:32;79.57;;;28.67;;
4049;SDS011;2039;50.894;6.888;2023-05-10T03:43:03;79.00;;;25.47;;
4049;SDS011;2039;50.894;6.888;2023-05-10T03:45:44;79.53;;;22.77;;
4049;SDS011;2039;50.894;6.888;2023-05-10T03:48:10;80.77;;;27.83;;
4049;SDS011;2039;50.894;6.888;2023-05-10T03:50:49;81.30;;;31.17;;
4049;SDS011;2039;50.894;6.888;2023-05-10T03:53:24;80.87;;;24.70;;
4049;SDS011;2039;50.894;6.888;2023-05-10T05:23:05;87.27;;;24.90;;
4049;SDS011;2039;50.894;6.888;2023-05-10T05:29:42;87.33;;;22.77;;
4049;SDS011;2039;50.894;6.888;2023-05-10T05:35:45;85.70;;;25.30;;
4049;SDS011;2039;50.894;6.888;2023-05-10T05:49:27;84.40;;;25.37;;
4049;SDS011;2039;50.894;6.888;2023-05-10T05:52:41;91.87;;;24.93;;
4049;SDS011;2039;50.894;6.888;2023-05-10T06:00:05;80.43;;;18.63;;
4049;SDS011;2039;50.894;6.888;2023-05-10T06:19:36;81.27;;;19.50;;
4049;SDS011;2039;50.894;6.888;2023-05-10T06:36:55;82.87;;;21.77;;
4049;SDS011;2039;50.894;6.888;2023-05-10T06:40:13;88.87;;;24.07;;
4049;SDS011;2039;50.894;6.888;2023-05-10T06:49:26;81.37;;;21.40;;
4049;SDS011;2039;50.894;6.888;2023-05-10T06:55:53;81.53;;;23.20;;
4049;SDS011;2039;50.894;6.888;2023-05-10T09:23:44;71.80;;;13.70;;
4049;SDS011;2039;50.894;6.888;2023-05-10T09:26:11;71.50;;;7.67;;
4049;SDS011;2039;50.894;6.888;2023-05-10T09:28:53;66.87;;;4.60;;
4049;SDS011;2039;50.894;6.888;2023-05-10T09:31:21;67.07;;;5.07;;
4049;SDS011;2039;50.894;6.888;2023-05-10T09:33:47;68.43;;;5.67;;
4049;SDS011;2039;50.894;6.888;2023-05-10T09:36:14;68.07;;;5.70;;
4049;SDS011;2039;50.894;6.888;2023-05-10T09:41:20;75.60;;;7.30;;
4049;SDS011;2039;50.894;6.888;2023-05-10T09:43:50;75.00;;;7.73;;
4049;SDS011;2039;50.894;6.888;2023-05-10T09:46:20;72.00;;;8.10;;
4049;SDS011;2039;50.894;6.888;2023-05-10T09:48:46;76.90;;;8.87;;
4049;SDS011;2039;50.894;6.888;2023-05-10T09:51:22;76.30;;;10.20;;
4049;SDS011;2039;50.894;6.888;2023-05-10T09:54:08;78.57;;;11.47;;
4049;SDS011;2039;50.894;6.888;2023-05-10T09:56:39;81.50;;;15.27;;
4049;SDS011;2039;50.894;6.888;2023-05-10T10:01:57;76.33;;;11.57;;
4049;SDS011;2039;50.894;6.888;2023-05-10T10:04:27;78.70;;;9.27;;
4049;SDS011;2039;50.894;6.888;2023-05-10T10:07:03;73.20;;;8.07;;
4049;SDS011;2039;50.894;6.888;2023-05-10T10:09:29;74.07;;;9.20;;
4049;SDS011;2039;50.894;6.888;2023-05-10T10:11:56;74.60;;;8.73;;
4049;SDS011;2039;50.894;6.888;2023-05-10T10:14:24;72.90;;;8.33;;
4049;SDS011;2039;50.894;6.888;2023-05-10T10:16:50;74.87;;;8.77;;
4049;SDS011;2039;50.894;6.888;2023-05-10T10:19:17;73.33;;;9.17;;
4049;SDS011;2039;50.894;6.888;2023-05-10T10:21:44;73.90;;;9.10;;
4049;SDS011;2039;50.894;6.888;2023-05-10T10:24:10;72.70;;;9.80;;
4049;SDS011;2039;50.894;6.888;2023-05-10T10:26:36;76.50;;;10.50;;
4049;SDS011;2039;50.894;6.888;2023-05-10T10:32:07;90.37;;;11.00;;
4049;SDS011;2039;50.894;6.888;2023-05-10T10:35:00;81.40;;;13.80;;
4049;SDS011;2039;50.894;6.888;2023-05-10T10:37:45;76.50;;;12.13;;
4049;SDS011;2039;50.894;6.888;2023-05-10T10:40:24;77.27;;;12.07;;
4049;SDS011;2039;50.894;6.888;2023-05-10T10:42:51;78.17;;;12.30;;
4049;SDS011;2039;50.894;6.888;2023-05-10T10:45:21;77.60;;;12.33;;
4049;SDS011;2039;50.894;6.888;2023-05-10T10:47:48;75.27;;;8.80;;
4049;SDS011;2039;50.894;6.888;2023-05-10T10:50:14;75.83;;;8.97;;
4049;SDS011;2039;50.894;6.888;2023-05-10T10:52:43;74.40;;;9.27;;
4049;SDS011;2039;50.894;6.888;2023-05-10T10:57:59;73.07;;;7.50;;
4049;SDS011;2039;50.894;6.888;2023-05-10T11:05:41;71.00;;;8.17;;
4049;SDS011;2039;50.894;6.888;2023-05-10T11:08:09;73.30;;;6.97;;
4049;SDS011;2039;50.894;6.888;2023-05-10T11:10:38;71.67;;;7.23;;
4049;SDS011;2039;50.894;6.888;2023-05-10T11:21:23;69.50;;;7.77;;
4049;SDS011;2039;50.894;6.888;2023-05-10T11:23:53;68.07;;;6.87;;
4049;SDS011;2039;50.894;6.888;2023-05-10T11:26:23;68.40;;;6.57;;
4049;SDS011;2039;50.894;6.888;2023-05-10T11:28:51;72.30;;;6.60;;
4049;SDS011;2039;50.894;6.888;2023-05-10T11:31:20;68.83;;;5.17;;
4049;SDS011;2039;50.894;6.888;2023-05-10T11:33:50;69.23;;;6.27;;
4049;SDS011;2039;50.894;6.888;2023-05-10T11:36:19;67.23;;;5.90;;
4049;SDS011;2039;50.894;6.888;2023-05-10T11:38:46;68.20;;;6.97;;
4049;SDS011;2039;50.894;6.888;2023-05-10T11:41:13;68.30;;;6.40;;
4049;SDS011;2039;50.894;6.888;2023-05-10T11:43:40;66.60;;;5.10;;
4049;SDS011;2039;50.894;6.888;2023-05-10T11:46:07;66.70;;;4.70;;
4049;SDS011;2039;50.894;6.888;2023-05-10T11:48:35;66.73;;;5.03;;
4049;SDS011;2039;50.894;6.888;2023-05-10T11:51:01;66.20;;;4.73;;
4049;SDS011;2039;50.894;6.888;2023-05-10T11:53:31;65.70;;;4.33;;
4049;SDS011;2039;50.894;6.888;2023-05-10T11:56:07;65.47;;;4.30;;
4049;SDS011;2039;50.894;6.888;2023-05-10T11:58:35;68.20;;;4.00;;
4049;SDS011;2039;50.894;6.888;2023-05-10T12:01:02;66.17;;;3.63;;
4049;SDS011;2039;50.894;6.888;2023-05-10T12:03:28;65.67;;;3.60;;
4049;SDS011;2039;50.894;6.888;2023-05-10T12:05:55;64.70;;;4.10;;
4049;SDS011;2039;50.894;6.888;2023-05-10T12:08:22;65.33;;;4.00;;
4049;SDS011;2039;50.894;6.888;2023-05-10T12:10:52;66.57;;;6.90;;
4049;SDS011;2039;50.894;6.888;2023-05-10T12:13:19;67.00;;;7.67;;
4049;SDS011;2039;50.894;6.888;2023-05-10T12:15:46;69.10;;;7.20;;
4049;SDS011;2039;50.894;6.888;2023-05-10T12:18:12;68.57;;;11.07;;
4049;SDS011;2039;50.894;6.888;2023-05-10T12:20:39;69.33;;;13.67;;
4049;SDS011;2039;50.894;6.888;2023-05-10T12:23:05;68.70;;;10.50;;
4049;SDS011;2039;50.894;6.888;2023-05-10T12:25:35;65.40;;;6.03;;
4049;SDS011;2039;50.894;6.888;2023-05-10T12:28:05;65.97;;;4.90;;
4049;SDS011;2039;50.894;6.888;2023-05-10T12:30:35;65.07;;;3.50;;
4049;SDS011;2039;50.894;6.888;2023-05-10T12:35:48;64.90;;;3.00;;
4049;SDS011;2039;50.894;6.888;2023-05-10T12:46:10;64.70;;;3.73;;
4049;SDS011;2039;50.894;6.888;2023-05-10T12:48:37;64.60;;;3.23;;
4049;SDS011;2039;50.894;6.888;2023-05-10T12:51:04;64.97;;;2.90;;
4049;SDS011;2039;50.894;6.888;2023-05-10T12:53:34;66.77;;;2.90;;
4049;SDS011;2039;50.894;6.888;2023-05-10T12:56:00;64.23;;;2.80;;
4049;SDS011;2039;50.894;6.888;2023-05-10T12:58:26;65.17;;;3.03;;
4049;SDS011;2039;50.894;6.888;2023-05-10T13:00:52;66.00;;;3.40;;
4049;SDS011;2039;50.894;6.888;2023-05-10T13:03:18;65.30;;;3.43;;
4049;SDS011;2039;50.894;6.888;2023-05-10T13:05:44;64.77;;;2.87;;
4049;SDS011;2039;50.894;6.888;2023-05-10T13:08:09;64.67;;;3.03;;
4049;SDS011;2039;50.894;6.888;2023-05-10T13:10:35;65.07;;;3.00;;
4049;SDS011;2039;50.894;6.888;2023-05-10T13:13:00;65.70;;;2.80;;
4049;SDS011;2039;50.894;6.888;2023-05-10T13:15:26;65.83;;;3.13;;
4049;SDS011;2039;50.894;6.888;2023-05-10T13:17:52;66.20;;;3.37;;
4049;SDS011;2039;50.894;6.888;2023-05-10T13:20:21;64.67;;;2.90;;
4049;SDS011;2039;50.894;6.888;2023-05-10T13:22:47;64.80;;;3.63;;
4049;SDS011;2039;50.894;6.888;2023-05-10T13:25:12;64.90;;;3.43;;
4049;SDS011;2039;50.894;6.888;2023-05-10T13:27:41;65.87;;;3.97;;
4049;SDS011;2039;50.894;6.888;2023-05-10T13:30:08;65.60;;;2.90;;
4049;SDS011;2039;50.894;6.888;2023-05-10T13:32:36;66.40;;;2.80;;
4049;SDS011;2039;50.894;6.888;2023-05-10T13:35:02;64.20;;;2.57;;
4049;SDS011;2039;50.894;6.888;2023-05-10T13:37:28;64.13;;;2.50;;
4049;SDS011;2039;50.894;6.888;2023-05-10T13:39:55;64.43;;;2.60;;
4049;SDS011;2039;50.894;6.888;2023-05-10T13:42:22;65.37;;;2.70;;
4049;SDS011;2039;50.894;6.888;2023-05-10T13:44:48;65.73;;;3.30;;
4049;SDS011;2039;50.894;6.888;2023-05-10T13:47:14;65.03;;;3.57;;
4049;SDS011;2039;50.894;6.888;2023-05-10T13:49:40;64.90;;;4.00;;
4049;SDS011;2039;50.894;6.888;2023-05-10T13:52:06;66.10;;;3.83;;
4049;SDS011;2039;50.894;6.888;2023-05-10T13:54:33;67.00;;;5.67;;
4049;SDS011;2039;50.894;6.888;2023-05-10T13:57:02;66.60;;;4.90;;
4049;SDS011;2039;50.894;6.888;2023-05-10T13:59:28;66.97;;;7.07;;
4049;SDS011;2039;50.894;6.888;2023-05-10T14:01:56;67.27;;;8.00;;
4049;SDS011;2039;50.894;6.888;2023-05-10T14:04:22;65.80;;;5.43;;
4049;SDS011;2039;50.894;6.888;2023-05-10T14:06:48;67.00;;;3.57;;
4049;SDS011;2039;50.894;6.888;2023-05-10T14:09:13;65.57;;;2.80;;
4049;SDS011;2039;50.894;6.888;2023-05-10T14:11:39;65.07;;;2.70;;
4049;SDS011;2039;50.894;6.888;2023-05-10T14:14:08;65.23;;;2.40;;
4049;SDS011;2039;50.894;6.888;2023-05-10T14:16:34;65.80;;;2.80;;
4049;SDS011;2039;50.894;6.888;2023-05-10T14:19:00;70.07;;;3.10;;
4049;SDS011;2039;50.894;6.888;2023-05-10T14:21:26;65.13;;;3.03;;
4049;SDS011;2039;50.894;6.888;2023-05-10T14:23:54;66.00;;;3.10;;
4049;SDS011;2039;50.894;6.888;2023-05-10T14:26:22;65.40;;;2.90;;
4049;SDS011;2039;50.894;6.888;2023-05-10T14:28:48;64.97;;;3.30;;
4049;SDS011;2039;50.894;6.888;2023-05-10T14:31:14;66.37;;;3.17;;
4049;SDS011;2039;50.894;6.888;2023-05-10T14:33:41;66.40;;;4.00;;
4049;SDS011;2039;50.894;6.888;2023-05-10T14:36:08;66.43;;;3.63;;
4049;SDS011;2039;50.894;6.888;2023-05-10T14:38:34;65.60;;;3.10;;
4049;SDS011;2039;50.894;6.888;2023-05-10T14:40:59;65.50;;;3.27;;
4049;SDS011;2039;50.894;6.888;2023-05-10T14:43:25;67.77;;;3.27;;
4049;SDS011;2039;50.894;6.888;2023-05-10T14:45:52;66.50;;;3.60;;
4049;SDS011;2039;50.894;6.888;2023-05-10T14:48:18;66.70;;;3.00;;
4049;SDS011;2039;50.894;6.888;2023-05-10T14:50:43;66.83;;;3.10;;
4049;SDS011;2039;50.894;6.888;2023-05-10T14:53:12;66.00;;;3.20;;
4049;SDS011;2039;50.894;6.888;2023-05-10T14:55:38;66.63;;;4.47;;
4049;SDS011;2039;50.894;6.888;2023-05-10T14:58:04;66.07;;;3.63;;
4049;SDS011;2039;50.894;6.888;2023-05-10T15:00:30;65.50;;;3.40;;
4049;SDS011;2039;50.894;6.888;2023-05-10T15:02:56;66.30;;;3.40;;
4049;SDS011;2039;50.894;6.888;2023-05-10T15:05:22;67.03;;;3.13;;
4049;SDS011;2039;50.894;6.888;2023-05-10T15:07:48;65.90;;;4.03;;
4049;SDS011;2039;50.894;6.888;2023-05-10T15:10:14;66.20;;;3.93;;
4049;SDS011;2039;50.894;6.888;2023-05-10T15:12:40;67.03;;;3.40;;
4049;SDS011;2039;50.894;6.888;2023-05-10T15:15:08;66.63;;;3.40;;
4049;SDS011;2039;50.894;6.888;2023-05-10T15:17:34;65.67;;;4.10;;
4049;SDS011;2039;50.894;6.888;2023-05-10T15:20:00;65.87;;;3.50;;
4049;SDS011;2039;50.894;6.888;2023-05-10T15:24:59;65.90;;;3.60;;
4049;SDS011;2039;50.894;6.888;2023-05-10T15:27:25;66.90;;;3.37;;
4049;SDS011;2039;50.894;6.888;2023-05-10T15:29:51;65.60;;;3.50;;
4049;SDS011;2039;50.894;6.888;2023-05-10T15:32:17;66.57;;;3.40;;
4049;SDS011;2039;50.894;6.888;2023-05-10T15:34:43;69.67;;;3.57;;
4049;SDS011;2039;50.894;6.888;2023-05-10T15:37:09;65.20;;;3.77;;
4049;SDS011;2039;50.894;6.888;2023-05-10T15:39:38;68.30;;;3.83;;
4049;SDS011;2039;50.894;6.888;2023-05-10T15:42:03;66.80;;;3.40;;
4049;SDS011;2039;50.894;6.888;2023-05-10T15:44:29;65.57;;;3.33;;
4049;SDS011;2039;50.894;6.888;2023-05-10T15:46:55;65.93;;;4.50;;
4049;SDS011;2039;50.894;6.888;2023-05-10T15:49:23;65.63;;;3.80;;
4049;SDS011;2039;50.894;6.888;2023-05-10T15:51:49;67.27;;;3.63;;
4049;SDS011;2039;50.894;6.888;2023-05-10T15:54:15;67.40;;;3.60;;
4049;SDS011;2039;50.894;6.888;2023-05-10T15:56:40;66.17;;;4.07;;
4049;SDS011;2039;50.894;6.888;2023-05-10T15:59:06;67.30;;;3.60;;
4049;SDS011;2039;50.894;6.888;2023-05-10T16:01:34;66.37;;;3.43;;
4049;SDS011;2039;50.894;6.888;2023-05-10T16:04:00;66.90;;;3.70;;
4049;SDS011;2039;50.894;6.888;2023-05-10T16:06:26;65.87;;;3.43;;
4049;SDS011;2039;50.894;6.888;2023-05-10T16:08:51;66.50;;;3.97;;
4049;SDS011;2039;50.894;6.888;2023-05-10T16:11:17;67.00;;;3.97;;
4049;SDS011;2039;50.894;6.888;2023-05-10T16:13:43;66.30;;;3.77;;
4049;SDS011;2039;50.894;6.888;2023-05-10T16:16:09;72.13;;;4.63;;
4049;SDS011;2039;50.894;6.888;2023-05-10T16:18:35;66.97;;;3.53;;
4049;SDS011;2039;50.894;6.888;2023-05-10T16:21:01;66.93;;;3.53;;
4049;SDS011;2039;50.894;6.888;2023-05-10T16:23:34;66.60;;;3.97;;
4049;SDS011;2039;50.894;6.888;2023-05-10T16:26:10;68.83;;;4.27;;
4049;SDS011;2039;50.894;6.888;2023-05-10T16:28:36;66.90;;;4.47;;
4049;SDS011;2039;50.894;6.888;2023-05-10T16:31:03;70.23;;;3.87;;
4049;SDS011;2039;50.894;6.888;2023-05-10T16:33:29;67.07;;;4.30;;
4049;SDS011;2039;50.894;6.888;2023-05-10T16:35:55;67.40;;;4.30;;
4049;SDS011;2039;50.894;6.888;2023-05-10T16:38:20;67.70;;;5.33;;
4049;SDS011;2039;50.894;6.888;2023-05-10T16:40:46;68.00;;;5.00;;
4049;SDS011;2039;50.894;6.888;2023-05-10T16:43:12;65.97;;;4.80;;
4049;SDS011;2039;50.894;6.888;2023-05-10T16:45:38;67.37;;;5.60;;
4049;SDS011;2039;50.894;6.888;2023-05-10T16:48:04;66.77;;;6.70;;
4049;SDS011;2039;50.894;6.888;2023-05-10T16:50:30;67.30;;;6.63;;
4049;SDS011;2039;50.894;6.888;2023-05-10T16:52:56;68.13;;;7.73;;
4049;SDS011;2039;50.894;6.888;2023-05-10T16:55:22;68.70;;;7.97;;
4049;SDS011;2039;50.894;6.888;2023-05-10T16:57:47;68.87;;;7.13;;
4049;SDS011;2039;50.894;6.888;2023-05-10T17:00:14;70.23;;;6.30;;
4049;SDS011;2039;50.894;6.888;2023-05-10T17:02:40;67.10;;;5.13;;
4049;SDS011;2039;50.894;6.888;2023-05-10T17:05:06;65.57;;;4.70;;
4049;SDS011;2039;50.894;6.888;2023-05-10T17:07:32;67.87;;;4.17;;
4049;SDS011;2039;50.894;6.888;2023-05-10T17:09:58;67.40;;;6.23;;
4049;SDS011;2039;50.894;6.888;2023-05-10T17:12:24;67.90;;;7.10;;
4049;SDS011;2039;50.894;6.888;2023-05-10T17:14:50;67.47;;;6.80;;
4049;SDS011;2039;50.894;6.888;2023-05-10T17:17:16;67.57;;;6.13;;
4049;SDS011;2039;50.894;6.888;2023-05-10T17:19:44;67.00;;;6.00;;
4049;SDS011;2039;50.894;6.888;2023-05-10T17:22:10;66.60;;;4.70;;
4049;SDS011;2039;50.894;6.888;2023-05-10T17:24:47;66.40;;;5.53;;
4049;SDS011;2039;50.894;6.888;2023-05-10T17:27:12;66.27;;;6.30;;
4049;SDS011;2039;50.894;6.888;2023-05-10T17:29:41;66.17;;;5.90;;
4049;SDS011;2039;50.894;6.888;2023-05-10T17:32:18;66.57;;;5.07;;
4049;SDS011;2039;50.894;6.888;2023-05-10T17:34:51;67.97;;;5.93;;
4049;SDS011;2039;50.894;6.888;2023-05-10T17:37:28;66.67;;;6.47;;
4049;SDS011;2039;50.894;6.888;2023-05-10T17:40:20;66.00;;;5.30;;
4049;SDS011;2039;50.894;6.888;2023-05-10T17:46:38;67.17;;;3.87;;
4049;SDS011;2039;50.894;6.888;2023-05-10T17:49:07;69.57;;;3.40;;
4049;SDS011;2039;50.894;6.888;2023-05-10T17:52:12;65.90;;;3.40;;
4049;SDS011;2039;50.894;6.888;2023-05-10T17:54:50;66.47;;;3.40;;
4049;SDS011;2039;50.894;6.888;2023-05-10T17:57:16;65.77;;;3.00;;
4049;SDS011;2039;50.894;6.888;2023-05-10T17:59:53;66.17;;;3.23;;
4049;SDS011;2039;50.894;6.888;2023-05-10T18:02:23;65.47;;;3.40;;
4049;SDS011;2039;50.894;6.888;2023-05-10T18:04:49;64.57;;;3.17;;
4049;SDS011;2039;50.894;6.888;2023-05-10T18:07:15;68.40;;;3.23;;
4049;SDS011;2039;50.894;6.888;2023-05-10T18:09:41;66.23;;;3.70;;
4049;SDS011;2039;50.894;6.888;2023-05-10T18:12:06;66.60;;;3.10;;
4049;SDS011;2039;50.894;6.888;2023-05-10T18:14:32;67.00;;;3.47;;
4049;SDS011;2039;50.894;6.888;2023-05-10T18:16:58;65.83;;;3.27;;
4049;SDS011;2039;50.894;6.888;2023-05-10T18:19:24;69.10;;;3.87;;
4049;SDS011;2039;50.894;6.888;2023-05-10T18:21:50;66.60;;;4.17;;
4049;SDS011;2039;50.894;6.888;2023-05-10T18:24:17;68.83;;;4.57;;
4049;SDS011;2039;50.894;6.888;2023-05-10T18:26:43;66.00;;;5.30;;
4049;SDS011;2039;50.894;6.888;2023-05-10T18:29:10;69.17;;;5.50;;
4049;SDS011;2039;50.894;6.888;2023-05-10T18:31:35;68.90;;;10.30;;
4049;SDS011;2039;50.894;6.888;2023-05-10T18:34:01;68.03;;;9.20;;
4049;SDS011;2039;50.894;6.888;2023-05-10T18:36:26;66.80;;;7.27;;
4049;SDS011;2039;50.894;6.888;2023-05-10T18:38:53;66.50;;;6.80;;
4049;SDS011;2039;50.894;6.888;2023-05-10T18:41:18;67.77;;;7.47;;
4049;SDS011;2039;50.894;6.888;2023-05-10T18:43:45;66.47;;;8.37;;
4049;SDS011;2039;50.894;6.888;2023-05-10T18:46:11;68.70;;;9.80;;
4049;SDS011;2039;50.894;6.888;2023-05-10T18:48:36;69.37;;;15.00;;
4049;SDS011;2039;50.894;6.888;2023-05-10T18:51:03;71.60;;;19.60;;
4049;SDS011;2039;50.894;6.888;2023-05-10T18:53:29;71.10;;;20.90;;
4049;SDS011;2039;50.894;6.888;2023-05-10T18:55:57;70.67;;;19.57;;
4049;SDS011;2039;50.894;6.888;2023-05-10T18:58:26;69.60;;;17.30;;
4049;SDS011;2039;50.894;6.888;2023-05-10T19:00:53;71.33;;;18.60;;
4049;SDS011;2039;50.894;6.888;2023-05-10T19:03:19;70.60;;;14.60;;
4049;SDS011;2039;50.894;6.888;2023-05-10T19:05:47;71.20;;;16.73;;
4049;SDS011;2039;50.894;6.888;2023-05-10T19:08:13;75.80;;;17.10;;
4049;SDS011;2039;50.894;6.888;2023-05-10T19:10:40;74.40;;;18.30;;
4049;SDS011;2039;50.894;6.888;2023-05-10T19:13:06;72.17;;;18.43;;
4049;SDS011;2039;50.894;6.888;2023-05-10T19:15:32;73.50;;;19.27;;
4049;SDS011;2039;50.894;6.888;2023-05-10T19:17:57;72.37;;;18.13;;
4049;SDS011;2039;50.894;6.888;2023-05-10T19:20:23;72.20;;;17.30;;
4049;SDS011;2039;50.894;6.888;2023-05-10T19:22:49;73.67;;;18.20;;
4049;SDS011;2039;50.894;6.888;2023-05-10T19:25:15;72.07;;;16.83;;
4049;SDS011;2039;50.894;6.888;2023-05-10T19:27:41;72.60;;;17.40;;
4049;SDS011;2039;50.894;6.888;2023-05-10T19:30:07;72.17;;;16.50;;
4049;SDS011;2039;50.894;6.888;2023-05-10T19:32:33;71.10;;;16.37;;
4049;SDS011;2039;50.894;6.888;2023-05-10T19:34:59;70.83;;;15.50;;
4049;SDS011;2039;50.894;6.888;2023-05-10T19:37:25;70.20;;;14.77;;
4049;SDS011;2039;50.894;6.888;2023-05-10T19:39:51;74.17;;;15.70;;
4049;SDS011;2039;50.894;6.888;2023-05-10T19:42:17;72.80;;;14.83;;
4049;SDS011;2039;50.894;6.888;2023-05-10T19:44:46;69.57;;;14.90;;
4049;SDS011;2039;50.894;6.888;2023-05-10T19:47:20;69.70;;;12.53;;
4049;SDS011;2039;50.894;6.888;2023-05-10T19:49:48;69.27;;;12.60;;
4049;SDS011;2039;50.894;6.888;2023-05-10T19:52:14;70.37;;;13.80;;
4049;SDS011;2039;50.894;6.888;2023-05-10T19:54:49;70.67;;;15.50;;
4049;SDS011;2039;50.894;6.888;2023-05-10T19:57:17;69.60;;;12.30;;
4049;SDS011;2039;50.894;6.888;2023-05-10T19:59:43;68.90;;;11.80;;
4049;SDS011;2039;50.894;6.888;2023-05-10T20:02:10;68.80;;;12.07;;
4049;SDS011;2039;50.894;6.888;2023-05-10T20:04:35;68.30;;;12.40;;
4049;SDS011;2039;50.894;6.888;2023-05-10T20:07:01;70.23;;;13.50;;
4049;SDS011;2039;50.894;6.888;2023-05-10T20:09:27;70.40;;;10.10;;
4049;SDS011;2039;50.894;6.888;2023-05-10T20:11:55;68.07;;;8.47;;
4049;SDS011;2039;50.894;6.888;2023-05-10T20:14:24;68.67;;;8.27;;
4049;SDS011;2039;50.894;6.888;2023-05-10T20:16:50;67.07;;;8.17;;
4049;SDS011;2039;50.894;6.888;2023-05-10T20:19:16;68.43;;;6.53;;
4049;SDS011;2039;50.894;6.888;2023-05-10T20:21:42;66.63;;;6.43;;
4049;SDS011;2039;50.894;6.888;2023-05-10T20:24:08;65.93;;;5.73;;
4049;SDS011;2039;50.894;6.888;2023-05-10T20:26:34;67.60;;;6.90;;
4049;SDS011;2039;50.894;6.888;2023-05-10T20:28:59;70.33;;;10.27;;
4049;SDS011;2039;50.894;6.888;2023-05-10T20:31:28;74.43;;;16.10;;
4049;SDS011;2039;50.894;6.888;2023-05-10T20:33:56;74.80;;;17.50;;
4049;SDS011;2039;50.894;6.888;2023-05-10T20:36:22;79.83;;;24.73;;
4049;SDS011;2039;50.894;6.888;2023-05-10T20:38:48;78.30;;;27.17;;
4049;SDS011;2039;50.894;6.888;2023-05-10T20:41:13;78.87;;;29.07;;
4049;SDS011;2039;50.894;6.888;2023-05-10T20:43:39;77.80;;;25.03;;
4049;SDS011;2039;50.894;6.888;2023-05-10T20:46:08;77.03;;;25.77;;
4049;SDS011;2039;50.894;6.888;2023-05-10T20:48:34;75.20;;;27.03;;
4049;SDS011;2039;50.894;6.888;2023-05-10T20:51:00;76.20;;;25.70;;
4049;SDS011;2039;50.894;6.888;2023-05-10T20:53:26;74.87;;;24.93;;
4049;SDS011;2039;50.894;6.888;2023-05-10T20:55:52;73.50;;;24.53;;
4049;SDS011;2039;50.894;6.888;2023-05-10T20:58:18;74.47;;;22.20;;
4049;SDS011;2039;50.894;6.888;2023-05-10T21:00:44;75.53;;;23.40;;
4049;SDS011;2039;50.894;6.888;2023-05-10T21:03:10;71.27;;;17.43;;
4049;SDS011;2039;50.894;6.888;2023-05-10T21:05:39;74.33;;;19.80;;
4049;SDS011;2039;50.894;6.888;2023-05-10T21:08:10;71.13;;;17.77;;